Stromness, United Kingdom
Current Conditions -  °F | °C
As of 12:20 PM on Monday 26 Jan 2015 (Local Time) from EGPA Reporting Station
Rain Showers Rain Showers  
Wind Chill: 33°   Ceiling: Unl
Heat Index: 41°   Visibility: 6mi
Dew Point: 36°   Wind: 16mph
Humidity: 81%   Direction: 290°WNW
Pressure: 29.85"   Gusts: NA
Location:  58.96°N, 3.3°W
Report Text: EGPA 261220Z 29014KT 240V310 9999 VCSH FEW014 FEW020CB 05/02 Q1011
Loading
Personal Weather Stations






























Interactive Weather Map New forecast layout! Learn more

10-Day Weather Forecast

Advertisements
Track Severe Weather on mobile